createdAt,value
2023-04-26T00:02:18.531Z,14.20
2023-04-26T00:04:47.299Z,10.47
2023-04-26T00:07:15.705Z,10.33
2023-04-26T00:09:44.325Z,8.83
2023-04-26T00:12:11.932Z,9.60
2023-04-26T00:14:38.765Z,13.53
2023-04-26T00:17:05.416Z,12.93
2023-04-26T00:19:32.133Z,7.77
2023-04-26T00:21:58.892Z,10.80
2023-04-26T00:24:27.878Z,8.37
2023-04-26T00:26:55.971Z,8.03
2023-04-26T00:29:23.717Z,7.73
2023-04-26T00:31:50.521Z,8.73
2023-04-26T00:34:17.461Z,10.60
2023-04-26T00:36:44.162Z,7.30
2023-04-26T00:39:10.965Z,8.73
2023-04-26T00:41:37.711Z,8.83
2023-04-26T00:44:04.748Z,9.07
2023-04-26T00:46:31.678Z,7.57
2023-04-26T00:48:58.410Z,8.57
2023-04-26T00:51:25.173Z,8.13
2023-04-26T00:53:51.795Z,8.53
2023-04-26T00:56:19.029Z,9.30
2023-04-26T00:58:46.278Z,7.33
2023-04-26T01:01:13.423Z,10.43
2023-04-26T01:03:41.644Z,12.73
2023-04-26T01:06:08.424Z,10.93
2023-04-26T01:08:36.970Z,10.03
2023-04-26T01:11:04.446Z,8.03
2023-04-26T01:13:32.870Z,7.50
2023-04-26T01:15:59.927Z,8.77
2023-04-26T01:18:26.887Z,8.00
2023-04-26T01:20:53.997Z,10.33
2023-04-26T01:23:20.896Z,7.90
2023-04-26T01:25:48.253Z,8.20
2023-04-26T01:28:14.969Z,7.47
2023-04-26T01:30:41.688Z,7.07
2023-04-26T01:33:08.351Z,7.97
2023-04-26T01:35:34.995Z,7.23
2023-04-26T01:38:02.619Z,8.63
2023-04-26T01:40:29.335Z,8.10
2023-04-26T01:42:56.170Z,7.37
2023-04-26T01:45:22.792Z,7.40
2023-04-26T01:48:08.887Z,8.73
2023-04-26T01:50:35.757Z,6.97
2023-04-26T01:53:02.490Z,7.33
2023-04-26T01:55:29.167Z,8.07
2023-04-26T01:57:55.888Z,6.80
2023-04-26T02:00:22.784Z,11.77
2023-04-26T02:02:49.716Z,8.87
2023-04-26T02:05:16.471Z,7.03
2023-04-26T02:07:43.134Z,7.40
2023-04-26T02:10:10.028Z,9.83
2023-04-26T02:12:36.763Z,7.40
2023-04-26T02:15:03.655Z,7.67
2023-04-26T02:17:31.615Z,8.90
2023-04-26T02:19:58.518Z,6.60
2023-04-26T02:22:25.358Z,6.43
2023-04-26T02:24:52.782Z,7.30
2023-04-26T02:27:20.049Z,8.43
2023-04-26T02:29:46.894Z,8.60
2023-04-26T02:32:14.228Z,8.53
2023-04-26T02:34:41.239Z,8.70
2023-04-26T02:37:08.800Z,12.27
2023-04-26T02:39:35.867Z,8.83
2023-04-26T02:42:02.648Z,8.10
2023-04-26T02:44:30.914Z,7.67
2023-04-26T02:47:01.310Z,9.57
2023-04-26T02:49:28.205Z,9.87
2023-04-26T02:51:54.829Z,8.37
2023-04-26T02:54:21.595Z,6.77
2023-04-26T02:56:48.256Z,15.10
2023-04-26T02:59:15.088Z,17.17
2023-04-26T03:01:43.231Z,8.17
2023-04-26T03:04:10.080Z,12.57
2023-04-26T03:06:38.003Z,8.97
2023-04-26T03:09:05.781Z,9.57
2023-04-26T03:11:32.890Z,8.40
2023-04-26T03:13:59.638Z,7.27
2023-04-26T03:16:28.272Z,6.77
2023-04-26T03:18:55.302Z,7.17
2023-04-26T03:21:22.217Z,5.93
2023-04-26T03:23:48.961Z,6.67
2023-04-26T03:26:15.897Z,6.53
2023-04-26T03:28:42.634Z,5.77
2023-04-26T03:31:09.228Z,7.27
2023-04-26T03:33:35.988Z,6.83
2023-04-26T03:36:02.722Z,6.90
2023-04-26T03:38:29.368Z,7.27
2023-04-26T03:40:57.023Z,4.40
2023-04-26T03:43:24.178Z,6.90
2023-04-26T03:45:51.492Z,7.47
2023-04-26T03:48:18.172Z,5.97
2023-04-26T03:50:45.903Z,8.23
2023-04-26T03:53:12.909Z,7.83
2023-04-26T03:55:39.602Z,7.27
2023-04-26T03:58:07.955Z,6.57
2023-04-26T04:00:38.716Z,7.97
2023-04-26T04:03:07.262Z,7.10
2023-04-26T04:05:34.254Z,8.90
2023-04-26T04:08:01.819Z,5.80
2023-04-26T04:10:28.947Z,5.30
2023-04-26T04:12:55.817Z,5.27
2023-04-26T04:15:22.787Z,4.33
2023-04-26T04:17:49.472Z,5.70
2023-04-26T04:20:16.342Z,7.53
2023-04-26T04:22:43.379Z,8.60
2023-04-26T04:25:14.049Z,7.93
2023-04-26T04:27:43.347Z,8.57
2023-04-26T04:30:12.453Z,6.33
2023-04-26T04:32:40.381Z,8.77
2023-04-26T04:35:07.792Z,6.10
2023-04-26T04:37:35.108Z,7.20
2023-04-26T04:40:02.159Z,6.40
2023-04-26T04:42:32.256Z,5.07
2023-04-26T04:44:59.718Z,6.33
2023-04-26T04:47:27.711Z,8.63
2023-04-26T04:49:54.470Z,7.57
2023-04-26T04:52:21.785Z,7.40
2023-04-26T04:54:48.876Z,8.33
2023-04-26T04:57:16.669Z,6.60
2023-04-26T04:59:44.625Z,6.50
2023-04-26T05:02:11.453Z,10.40
2023-04-26T05:04:38.360Z,6.50
2023-04-26T05:07:06.526Z,6.30
2023-04-26T05:09:34.043Z,7.97
2023-04-26T05:12:01.324Z,7.43
2023-04-26T05:14:29.931Z,7.40
2023-04-26T05:16:57.533Z,8.23
2023-04-26T05:19:25.324Z,8.73
2023-04-26T05:21:52.568Z,8.37
2023-04-26T05:24:19.658Z,7.23
2023-04-26T05:26:47.338Z,7.50
2023-04-26T05:29:32.803Z,6.30
2023-04-26T05:32:06.034Z,7.20
2023-04-26T05:34:51.878Z,5.60
2023-04-26T05:37:18.580Z,6.80
2023-04-26T05:39:45.310Z,5.87
2023-04-26T05:42:12.105Z,7.27
2023-04-26T05:44:39.521Z,5.57
2023-04-26T05:47:06.678Z,8.07
2023-04-26T05:49:33.359Z,10.23
2023-04-26T05:52:03.782Z,6.80
2023-04-26T05:54:30.510Z,7.47
2023-04-26T05:56:58.972Z,5.77
2023-04-26T05:59:26.866Z,6.47
2023-04-26T06:01:54.271Z,5.43
2023-04-26T06:04:21.180Z,9.23
2023-04-26T06:07:00.625Z,7.30
2023-04-26T06:09:27.347Z,6.93
2023-04-26T06:11:54.072Z,6.17
2023-04-26T06:14:30.073Z,7.00
2023-04-26T06:17:00.592Z,8.90
2023-04-26T06:19:28.365Z,6.60
2023-04-26T06:21:56.970Z,5.37
2023-04-26T06:24:27.062Z,6.37
2023-04-26T06:26:53.827Z,4.80
2023-04-26T06:29:21.426Z,8.30
2023-04-26T06:31:48.408Z,7.13
2023-04-26T06:34:15.135Z,6.33
2023-04-26T06:36:42.197Z,6.17
2023-04-26T06:39:09.585Z,4.53
2023-04-26T06:41:39.036Z,9.93
2023-04-26T06:44:05.991Z,7.30
2023-04-26T06:46:32.693Z,6.63
2023-04-26T06:48:59.334Z,8.60
2023-04-26T06:51:26.966Z,8.67
2023-04-26T06:53:53.751Z,5.33
2023-04-26T06:56:20.961Z,7.23
2023-04-26T06:59:01.503Z,11.17
2023-04-26T07:01:29.468Z,6.80
2023-04-26T07:03:59.519Z,6.00
2023-04-26T07:06:26.498Z,7.63
2023-04-26T07:08:53.611Z,7.33
2023-04-26T07:11:21.991Z,7.27
2023-04-26T07:13:49.528Z,9.53
2023-04-26T07:16:16.769Z,7.60
2023-04-26T07:18:43.627Z,9.17
2023-04-26T07:21:10.258Z,6.23
2023-04-26T07:23:36.934Z,6.50
2023-04-26T07:26:04.430Z,5.87
2023-04-26T07:28:31.799Z,7.50
2023-04-26T07:31:00.106Z,10.07
2023-04-26T07:33:27.391Z,8.20
2023-04-26T07:35:58.849Z,7.20
2023-04-26T07:38:25.818Z,8.90
2023-04-26T07:40:52.741Z,7.83
2023-04-26T07:43:20.538Z,11.13
2023-04-26T07:45:47.190Z,7.30
2023-04-26T07:48:13.898Z,8.93
2023-04-26T07:50:40.633Z,7.87
2023-04-26T07:53:07.306Z,4.87
2023-04-26T07:55:33.938Z,7.30
2023-04-26T07:58:00.875Z,5.90
2023-04-26T08:00:27.721Z,6.30
2023-04-26T08:02:54.687Z,6.77
2023-04-26T08:05:22.151Z,7.77
2023-04-26T08:07:48.859Z,5.77
2023-04-26T08:10:15.808Z,5.30
2023-04-26T08:12:42.544Z,6.60
2023-04-26T08:15:09.887Z,5.17
2023-04-26T08:17:36.897Z,6.80
2023-04-26T08:20:05.947Z,7.03
2023-04-26T08:22:32.621Z,10.47
2023-04-26T08:24:59.331Z,6.47
2023-04-26T08:27:26.070Z,7.83
2023-04-26T08:29:52.691Z,7.40
2023-04-26T08:32:19.479Z,6.60
2023-04-26T08:34:46.599Z,8.90
2023-04-26T08:37:13.705Z,6.30
2023-04-26T08:39:41.556Z,6.00
2023-04-26T08:42:15.950Z,5.93
2023-04-26T08:44:44.287Z,6.40
2023-04-26T08:47:18.493Z,7.97
2023-04-26T08:49:53.002Z,5.30
2023-04-26T08:52:23.286Z,5.97
2023-04-26T08:54:52.539Z,5.67
2023-04-26T08:57:19.695Z,5.33
2023-04-26T08:59:46.989Z,6.87
2023-04-26T09:02:18.609Z,5.93
2023-04-26T09:04:49.967Z,4.60
2023-04-26T09:07:41.993Z,6.27
2023-04-26T09:10:10.740Z,8.20
2023-04-26T09:12:38.083Z,6.53
2023-04-26T09:15:07.252Z,5.43
2023-04-26T09:17:38.922Z,5.37
2023-04-26T09:20:28.984Z,5.00
2023-04-26T09:23:06.593Z,4.23
2023-04-26T09:25:33.645Z,4.80
2023-04-26T09:28:01.334Z,4.83
2023-04-26T09:30:29.033Z,6.07
2023-04-26T09:33:06.918Z,7.60
2023-04-26T09:35:40.600Z,6.83
2023-04-26T09:38:12.588Z,6.73
2023-04-26T09:40:50.521Z,7.37
2023-04-26T09:43:19.556Z,5.53
2023-04-26T09:45:46.190Z,8.37
2023-04-26T09:48:23.323Z,5.17
2023-04-26T09:50:52.544Z,5.33
2023-04-26T09:53:47.560Z,5.80
2023-04-26T09:56:19.804Z,7.10
2023-04-26T09:58:46.555Z,5.63
2023-04-26T10:01:16.165Z,7.07
2023-04-26T10:03:44.080Z,5.00
2023-04-26T10:06:12.756Z,6.83
2023-04-26T10:08:39.561Z,7.97
2023-04-26T10:11:13.073Z,6.03
2023-04-26T10:16:09.901Z,7.20
2023-04-26T10:18:37.162Z,6.27
2023-04-26T10:21:35.239Z,5.07
2023-04-26T10:24:02.921Z,6.17
2023-04-26T10:26:53.005Z,6.23
2023-04-26T10:29:46.617Z,7.23
2023-04-26T10:32:17.196Z,5.33
2023-04-26T10:34:44.236Z,6.80
2023-04-26T10:37:14.349Z,3.97
2023-04-26T10:39:43.498Z,5.93
2023-04-26T10:42:24.160Z,6.03
2023-04-26T10:44:53.591Z,5.53
2023-04-26T10:47:36.443Z,6.53
2023-04-26T10:50:08.979Z,8.00
2023-04-26T10:52:38.236Z,5.77
2023-04-26T10:55:06.831Z,5.07
2023-04-26T10:57:50.361Z,6.20
2023-04-26T11:00:29.195Z,6.25
2023-04-26T11:03:10.316Z,5.25
2023-04-26T11:05:38.537Z,5.65
2023-04-26T11:08:09.916Z,6.90
2023-04-26T11:10:41.061Z,5.20
2023-04-26T11:13:07.915Z,6.05
2023-04-26T11:15:36.146Z,7.70
2023-04-26T11:18:04.831Z,5.47
2023-04-26T11:20:32.957Z,4.45
2023-04-26T11:23:00.134Z,10.30
2023-04-26T11:25:28.372Z,6.90
2023-04-26T11:28:02.423Z,5.57
2023-04-26T11:30:31.597Z,5.45
2023-04-26T11:32:59.740Z,5.32
2023-04-26T11:35:29.464Z,5.93
2023-04-26T11:38:02.088Z,6.93
2023-04-26T11:40:30.895Z,5.63
2023-04-26T11:43:02.447Z,6.03
2023-04-26T11:45:29.309Z,4.45
2023-04-26T11:47:56.584Z,5.28
2023-04-26T11:50:26.727Z,5.70
2023-04-26T11:52:58.197Z,5.38
2023-04-26T11:55:28.150Z,6.53
2023-04-26T11:57:54.919Z,5.65
2023-04-26T12:00:23.033Z,6.18
2023-04-26T12:02:50.643Z,6.40
2023-04-26T12:05:28.218Z,5.72
2023-04-26T12:08:00.401Z,5.63
2023-04-26T12:10:29.169Z,8.52
2023-04-26T12:12:58.550Z,7.63
2023-04-26T12:15:34.928Z,6.43
2023-04-26T12:18:10.041Z,6.85
2023-04-26T12:20:39.073Z,8.25
2023-04-26T12:23:06.806Z,4.93
2023-04-26T12:25:35.074Z,5.70
2023-04-26T12:28:04.339Z,5.43
2023-04-26T12:30:31.365Z,5.80
2023-04-26T12:33:16.633Z,5.37
2023-04-26T12:35:44.100Z,6.17
2023-04-26T12:38:12.205Z,5.47
2023-04-26T12:40:39.475Z,6.13
2023-04-26T12:43:06.634Z,7.50
2023-04-26T12:45:33.416Z,6.00
2023-04-26T12:48:00.300Z,5.17
2023-04-26T12:50:27.588Z,6.23
2023-04-26T12:52:54.589Z,5.80
2023-04-26T12:55:21.388Z,5.70
2023-04-26T12:57:48.110Z,4.97
2023-04-26T13:00:17.568Z,5.30
2023-04-26T13:02:44.662Z,4.77
2023-04-26T13:05:11.810Z,5.67
2023-04-26T13:07:42.816Z,5.87
2023-04-26T13:10:12.946Z,6.07
2023-04-26T13:12:40.447Z,5.70
2023-04-26T13:15:08.342Z,6.43
2023-04-26T13:17:37.243Z,7.17
2023-04-26T13:20:06.361Z,6.10
2023-04-26T13:22:34.196Z,7.53
2023-04-26T13:25:00.962Z,7.13
2023-04-26T13:27:30.471Z,7.47
2023-04-26T13:29:58.414Z,6.17
2023-04-26T13:32:25.382Z,4.73
2023-04-26T13:34:52.881Z,5.93
2023-04-26T13:37:21.181Z,6.40
2023-04-26T13:39:48.384Z,7.77
2023-04-26T13:42:16.294Z,5.90
2023-04-26T13:44:43.255Z,4.83
2023-04-26T13:47:10.376Z,5.80
2023-04-26T13:49:38.185Z,6.20
2023-04-26T13:52:04.913Z,7.77
2023-04-26T13:54:31.670Z,5.53
2023-04-26T13:56:58.311Z,7.57
2023-04-26T13:59:25.000Z,6.23
2023-04-26T14:01:54.215Z,4.57
2023-04-26T14:04:22.343Z,6.40
2023-04-26T14:06:49.267Z,5.53
2023-04-26T14:09:16.272Z,6.93
2023-04-26T14:11:42.956Z,5.63
2023-04-26T14:14:09.629Z,6.03
2023-04-26T14:16:36.356Z,5.03
2023-04-26T14:19:02.993Z,4.73
2023-04-26T14:21:29.672Z,5.57
2023-04-26T14:23:56.536Z,7.80
2023-04-26T14:26:25.955Z,7.10
2023-04-26T14:28:52.756Z,7.60
2023-04-26T14:31:19.780Z,5.60
2023-04-26T14:33:49.403Z,7.10
2023-04-26T14:36:16.128Z,6.73
2023-04-26T14:38:43.737Z,8.30
2023-04-26T14:41:17.109Z,5.97
2023-04-26T14:43:45.941Z,5.17
2023-04-26T14:46:13.511Z,4.93
2023-04-26T14:48:40.477Z,6.30
2023-04-26T14:51:07.093Z,5.67
2023-04-26T14:53:33.747Z,4.57
2023-04-26T14:56:05.955Z,7.93
2023-04-26T14:58:32.702Z,7.30
2023-04-26T15:00:59.412Z,5.87
2023-04-26T15:03:26.989Z,5.57
2023-04-26T15:05:53.909Z,6.67
2023-04-26T15:08:20.623Z,6.73
2023-04-26T15:10:47.222Z,7.10
2023-04-26T15:13:13.847Z,5.40
2023-04-26T15:15:40.501Z,5.57
2023-04-26T15:18:07.234Z,5.30
2023-04-26T15:20:33.914Z,6.03
2023-04-26T15:23:00.624Z,5.80
2023-04-26T15:25:27.279Z,4.97
2023-04-26T15:27:53.892Z,6.10
2023-04-26T15:30:20.753Z,6.90
2023-04-26T15:32:49.237Z,6.77
2023-04-26T15:35:16.065Z,5.03
2023-04-26T15:37:44.063Z,6.53
2023-04-26T15:40:11.993Z,6.40
2023-04-26T15:42:39.195Z,9.47
2023-04-26T15:45:06.516Z,6.33
2023-04-26T15:47:34.445Z,6.87
2023-04-26T15:50:03.662Z,5.40
2023-04-26T15:52:36.277Z,10.43
2023-04-26T15:55:07.136Z,5.43
2023-04-26T15:57:34.587Z,5.93
2023-04-26T16:00:01.805Z,7.43
2023-04-26T16:02:31.343Z,4.37
2023-04-26T16:04:58.209Z,6.87
2023-04-26T16:07:25.095Z,5.57
2023-04-26T16:09:52.493Z,4.30
2023-04-26T16:12:19.709Z,5.90
2023-04-26T16:14:46.405Z,5.63
2023-04-26T16:17:13.357Z,4.93
2023-04-26T16:19:40.157Z,6.23
2023-04-26T16:22:06.829Z,5.10
2023-04-26T16:24:33.502Z,5.33
2023-04-26T16:27:00.251Z,7.43
2023-04-26T16:29:27.126Z,5.63
2023-04-26T16:31:53.863Z,17.73
2023-04-26T16:34:20.730Z,8.83
2023-04-26T16:36:47.417Z,6.17
2023-04-26T16:39:16.177Z,5.30
2023-04-26T16:41:43.285Z,6.13
2023-04-26T16:44:10.076Z,5.23
2023-04-26T16:46:37.256Z,5.67
2023-04-26T16:49:09.439Z,6.37
2023-04-26T16:51:37.386Z,4.87
2023-04-26T16:54:04.423Z,5.87
2023-04-26T16:56:32.080Z,5.27
2023-04-26T16:58:59.181Z,5.23
2023-04-26T17:01:26.480Z,4.37
2023-04-26T17:03:53.951Z,3.83
2023-04-26T17:06:20.985Z,5.13
2023-04-26T17:08:47.836Z,7.37
2023-04-26T17:11:17.943Z,4.43
2023-04-26T17:13:45.073Z,5.53
2023-04-26T17:16:12.139Z,5.87
2023-04-26T17:18:38.898Z,6.67
2023-04-26T17:21:06.016Z,6.13
2023-04-26T17:23:33.712Z,6.73
2023-04-26T17:26:01.745Z,7.20
2023-04-26T17:28:28.718Z,6.83
2023-04-26T17:30:55.430Z,6.13
2023-04-26T17:33:22.147Z,5.20
2023-04-26T17:35:48.974Z,8.20
2023-04-26T17:38:15.853Z,8.37
2023-04-26T17:40:42.592Z,8.17
2023-04-26T17:43:09.224Z,6.33
2023-04-26T17:45:35.936Z,5.77
2023-04-26T17:48:02.946Z,8.30
2023-04-26T17:50:30.281Z,7.07
2023-04-26T17:52:56.977Z,8.23
2023-04-26T17:55:23.646Z,14.50
2023-04-26T17:57:50.557Z,15.40
2023-04-26T18:00:17.797Z,17.37
2023-04-26T18:02:44.615Z,9.80
2023-04-26T18:05:11.790Z,7.93
2023-04-26T18:07:38.642Z,5.17
2023-04-26T18:10:06.460Z,8.83
2023-04-26T18:12:33.337Z,4.77
2023-04-26T18:15:00.362Z,4.90
2023-04-26T18:17:27.234Z,5.93
2023-04-26T18:19:54.091Z,6.17
2023-04-26T18:22:20.944Z,6.10
2023-04-26T18:24:47.629Z,7.67
2023-04-26T18:27:14.362Z,3.50
2023-04-26T18:29:41.352Z,5.17
2023-04-26T18:32:08.046Z,5.93
2023-04-26T18:34:34.723Z,7.10
2023-04-26T18:37:01.394Z,5.30
2023-04-26T18:39:28.092Z,6.77
2023-04-26T18:41:54.715Z,5.33
2023-04-26T18:44:21.428Z,4.70
2023-04-26T18:46:48.225Z,5.47
2023-04-26T18:49:14.970Z,5.00
2023-04-26T18:51:41.616Z,4.00
2023-04-26T18:54:08.314Z,4.80
2023-04-26T18:56:35.043Z,4.50
2023-04-26T18:59:01.752Z,4.83
2023-04-26T19:01:28.425Z,3.37
2023-04-26T19:03:55.751Z,6.07
2023-04-26T19:06:22.565Z,4.30
2023-04-26T19:08:49.218Z,4.57
2023-04-26T19:11:15.854Z,4.90
2023-04-26T19:13:42.777Z,5.87
2023-04-26T19:16:10.410Z,5.90
2023-04-26T19:18:37.513Z,4.47
2023-04-26T19:21:05.173Z,5.87
2023-04-26T19:23:31.956Z,4.93
2023-04-26T19:26:07.656Z,5.23
2023-04-26T19:28:35.058Z,7.03
2023-04-26T19:31:01.884Z,7.13
2023-04-26T19:33:28.688Z,5.33
2023-04-26T19:35:58.945Z,5.90
2023-04-26T19:38:25.714Z,6.87
2023-04-26T19:40:52.939Z,12.03
2023-04-26T19:43:20.406Z,13.73
2023-04-26T19:45:47.613Z,18.07
2023-04-26T19:48:14.512Z,18.87
2023-04-26T19:50:45.462Z,17.60
2023-04-26T19:53:14.990Z,10.80
2023-04-26T19:55:42.341Z,7.33
2023-04-26T19:58:13.057Z,8.53
2023-04-26T20:00:40.546Z,8.97
2023-04-26T20:03:07.728Z,7.53
2023-04-26T20:05:34.850Z,9.43
2023-04-26T20:08:01.718Z,5.80
2023-04-26T20:10:33.568Z,7.07
2023-04-26T20:13:00.607Z,8.30
2023-04-26T20:15:27.784Z,5.60
2023-04-26T20:17:54.995Z,6.53
2023-04-26T20:20:22.071Z,8.47
2023-04-26T20:22:48.890Z,6.40
2023-04-26T20:25:15.811Z,8.00
2023-04-26T20:27:42.582Z,8.70
2023-04-26T20:30:10.060Z,13.10
2023-04-26T20:32:36.721Z,10.47
2023-04-26T20:35:04.608Z,8.63
2023-04-26T20:37:31.271Z,8.87
2023-04-26T20:39:57.900Z,8.77
2023-04-26T20:42:25.180Z,7.93
2023-04-26T20:44:52.181Z,8.77
2023-04-26T20:47:19.254Z,6.63
2023-04-26T20:49:45.980Z,8.90
2023-04-26T20:52:12.824Z,8.87
2023-04-26T20:54:39.523Z,8.70
2023-04-26T20:57:06.356Z,7.47
2023-04-26T20:59:33.052Z,10.07
2023-04-26T21:01:59.738Z,8.50
2023-04-26T21:04:26.903Z,8.10
2023-04-26T21:06:53.875Z,11.77
2023-04-26T21:09:21.468Z,18.70
2023-04-26T21:11:48.148Z,18.03
2023-04-26T21:14:14.781Z,14.90
2023-04-26T21:16:41.653Z,11.70
2023-04-26T21:19:08.545Z,12.13
2023-04-26T21:21:35.487Z,12.50
2023-04-26T21:24:03.261Z,11.43
2023-04-26T21:26:30.161Z,8.53
2023-04-26T21:28:56.861Z,6.87
2023-04-26T21:31:23.671Z,18.90
2023-04-26T21:33:50.818Z,26.23
2023-04-26T21:36:17.633Z,29.20
2023-04-26T21:38:44.584Z,24.90
2023-04-26T21:41:11.381Z,25.97
2023-04-26T21:43:38.100Z,18.80
2023-04-26T21:46:05.004Z,18.17
2023-04-26T21:48:31.635Z,14.70
2023-04-26T21:50:58.346Z,14.47
2023-04-26T21:53:25.064Z,10.70
2023-04-26T21:55:52.848Z,8.50
2023-04-26T21:58:20.621Z,8.27
2023-04-26T22:00:47.945Z,5.50
2023-04-26T22:03:14.886Z,6.33
2023-04-26T22:05:41.887Z,8.20
2023-04-26T22:08:08.718Z,7.47
2023-04-26T22:10:36.241Z,7.37
2023-04-26T22:13:03.016Z,6.60
2023-04-26T22:15:29.838Z,9.53
2023-04-26T22:17:56.694Z,6.30
2023-04-26T22:20:23.503Z,7.70
2023-04-26T22:22:50.318Z,7.83
2023-04-26T22:25:17.021Z,4.87
2023-04-26T22:27:43.617Z,6.60
2023-04-26T22:30:23.997Z,7.90
2023-04-26T22:32:54.510Z,3.70
2023-04-26T22:35:22.773Z,3.97
2023-04-26T22:37:49.915Z,7.47
2023-04-26T22:40:16.745Z,4.83
2023-04-26T22:42:43.831Z,4.53
2023-04-26T22:45:12.342Z,5.33
2023-04-26T22:47:40.079Z,3.80
2023-04-26T22:50:08.045Z,4.83
2023-04-26T22:52:35.699Z,4.57
2023-04-26T22:55:02.807Z,5.83
2023-04-26T22:57:30.316Z,5.33
2023-04-26T22:59:57.093Z,6.07
2023-04-26T23:02:24.196Z,5.73
2023-04-26T23:04:51.317Z,5.87
2023-04-26T23:07:18.148Z,5.50
2023-04-26T23:09:45.054Z,4.53
2023-04-26T23:12:11.773Z,6.50
2023-04-26T23:14:38.507Z,8.17
2023-04-26T23:17:05.738Z,9.87
2023-04-26T23:19:33.140Z,5.93
2023-04-26T23:22:00.028Z,7.17
2023-04-26T23:24:27.005Z,4.73
2023-04-26T23:26:53.780Z,6.13
2023-04-26T23:29:20.434Z,7.93
2023-04-26T23:31:47.166Z,4.27
2023-04-26T23:34:13.912Z,4.17
2023-04-26T23:36:41.097Z,7.90
2023-04-26T23:39:08.782Z,5.33
2023-04-26T23:41:35.757Z,4.83
2023-04-26T23:44:02.397Z,4.77
2023-04-26T23:46:29.619Z,6.67
2023-04-26T23:48:56.300Z,5.30
2023-04-26T23:51:22.989Z,4.60
2023-04-26T23:53:49.668Z,6.13
2023-04-26T23:56:16.362Z,4.53
2023-04-26T23:58:43.116Z,7.53
